Time;durP1;ratioP1;P1;durP2;ratioP2;P2;SDS_P1;SDS_P2;PMS_P1;PMS_P2;Temp;Humidity;BMP_temperature;BMP_pressure;BME280_temperature;BME280_humidity;BME280_pressure;Samples;Min_cycle;Max_cycle;Signal;HPM_P1;HPM_P2
2022/08/19 00:00:50;;;;;;;;;10.25;10.00;;;;;27.74;42.71;100428.19;146602;611;45912;-70
2022/08/19 00:03:50;;;;;;;;;11.25;11.25;;;;;27.70;42.38;100435.41;146606;645;46010;-71
2022/08/19 00:06:56;;;;;;;;;12.00;10.50;;;;;27.66;42.35;100427.50;146600;608;46013;-70
2022/08/19 00:09:48;;;;;;;;;11.00;10.00;;;;;27.66;42.69;100432.81;146608;569;45021;-70
2022/08/19 00:12:53;;;;;;;;;12.25;11.00;;;;;27.66;42.59;100432.81;146628;567;45913;-70
2022/08/19 00:15:58;;;;;;;;;11.00;11.00;;;;;27.60;43.20;100437.41;146626;573;46916;-71
2022/08/19 00:19:07;;;;;;;;;10.25;9.50;;;;;26.55;42.34;100264.13;146629;569;45912;-70
2022/08/19 00:22:09;;;;;;;;;12.50;11.75;;;;;27.44;43.51;100422.66;146632;573;45010;-71
2022/08/19 00:25:15;;;;;;;;;12.00;10.25;;;;;27.13;43.63;100399.41;146629;555;45912;-70
2022/08/19 00:28:10;;;;;;;;;10.75;10.25;;;;;27.16;44.20;100427.72;146629;631;45011;-70
2022/08/19 00:31:19;;;;;;;;;10.25;9.75;;;;;27.11;43.47;100425.16;146628;586;45912;-72
2022/08/19 00:34:31;;;;;;;;;;;;;;;;;;;;;
2022/08/19 00:37:28;;;;;;;;;10.50;10.00;;;;;27.14;43.86;100424.25;146629;661;45910;-69
2022/08/19 00:40:27;;;;;;;;;13.25;11.25;;;;;27.16;44.05;100423.28;146628;581;46020;-68
2022/08/19 00:43:38;;;;;;;;;12.50;12.50;;;;;27.16;43.86;100417.09;146628;565;45913;-68
2022/08/19 00:46:36;;;;;;;;;11.25;10.50;;;;;27.15;44.29;100412.69;146630;576;44020;-69
2022/08/19 00:50:07;;;;;;;;;12.25;11.00;;;;;27.15;44.07;100410.03;146626;583;45917;-69
2022/08/19 00:53:10;;;;;;;;;13.75;12.50;;;;;27.14;43.39;100411.81;146632;661;45014;-69
2022/08/19 00:56:17;;;;;;;;;13.25;12.25;;;;;27.16;44.22;100415.28;146626;718;45915;-70
2022/08/19 00:59:18;;;;;;;;;11.50;11.25;;;;;27.24;44.21;100419.59;146625;567;46014;-70
2022/08/19 01:02:16;;;;;;;;;12.75;12.00;;;;;27.28;44.52;100402.63;146624;618;45016;-69
2022/08/19 01:05:18;;;;;;;;;14.75;13.50;;;;;27.28;44.30;100405.31;146626;600;45915;-68
2022/08/19 01:08:24;;;;;;;;;11.00;10.50;;;;;27.25;44.81;100419.56;146629;565;44914;-68
2022/08/19 01:11:22;;;;;;;;;11.50;11.50;;;;;27.16;45.02;100411.75;146616;589;45021;-69
2022/08/19 01:14:29;;;;;;;;;12.75;12.75;;;;;27.07;45.56;100414.59;146600;571;46014;-69
2022/08/19 01:17:28;;;;;;;;;11.25;10.00;;;;;26.99;45.91;100406.78;146606;631;45020;-69
2022/08/19 01:20:30;;;;;;;;;13.75;13.25;;;;;26.89;46.38;100402.59;146602;573;45914;-68
2022/08/19 01:23:42;;;;;;;;;12.75;12.75;;;;;26.77;46.33;100398.38;146605;586;45020;-68
2022/08/19 01:26:42;;;;;;;;;15.00;13.25;;;;;26.68;46.57;100401.22;146602;632;45912;-69
2022/08/19 01:29:37;;;;;;;;;13.50;12.50;;;;;26.66;46.58;100393.25;146605;592;45051;-68
2022/08/19 01:32:48;;;;;;;;;17.00;14.75;;;;;26.69;46.25;100395.88;146601;592;45914;-68
2022/08/19 01:35:51;;;;;;;;;16.50;15.25;;;;;26.67;45.56;100396.81;146604;599;46010;-70
2022/08/19 01:38:59;;;;;;;;;14.25;14.25;;;;;26.64;45.48;100387.13;146602;576;45913;-70
2022/08/19 01:42:07;;;;;;;;;14.50;14.50;;;;;26.61;45.25;100386.31;146606;633;45021;-69
2022/08/19 01:45:05;;;;;;;;;9.75;9.75;;;;;26.58;45.34;100381.94;146602;577;45912;-70
2022/08/19 01:48:01;;;;;;;;;12.25;12.25;;;;;26.57;45.19;100385.47;146606;596;45020;-69
2022/08/19 01:50:58;;;;;;;;;11.00;11.00;;;;;26.59;44.29;100389.00;146602;629;45912;-69
2022/08/19 01:54:07;;;;;;;;;13.75;12.50;;;;;25.61;43.97;100218.12;146604;586;45025;-70
2022/08/19 01:57:16;;;;;;;;;14.75;12.50;;;;;26.62;44.87;100386.25;146598;702;47017;-69
2022/08/19 02:00:21;;;;;;;;;14.50;13.75;;;;;26.63;44.59;100395.97;146601;599;46010;-69
2022/08/19 02:03:15;;;;;;;;;10.50;10.50;;;;;26.62;44.33;100393.37;146602;581;46015;-70
2022/08/19 02:06:17;;;;;;;;;13.75;12.75;;;;;26.59;44.42;100394.31;146603;599;46010;-68
2022/08/19 02:09:16;;;;;;;;;12.00;12.00;;;;;26.53;44.69;100388.25;146603;637;45911;-70
2022/08/19 02:12:12;;;;;;;;;10.75;10.25;;;;;26.53;45.00;100401.53;146604;686;45021;-69
2022/08/19 02:15:07;;;;;;;;;13.00;10.50;;;;;26.53;44.76;100401.53;146602;569;45912;-69
2022/08/19 02:18:05;;;;;;;;;12.75;12.50;;;;;26.51;44.12;100404.19;146606;618;45021;-72
2022/08/19 02:20:57;;;;;;;;;11.50;9.75;;;;;26.51;44.03;100409.53;146601;685;45912;-71
2022/08/19 02:23:53;;;;;;;;;10.50;10.00;;;;;26.49;44.10;100403.37;146607;613;45020;-70
2022/08/19 02:26:46;;;;;;;;;11.50;10.25;;;;;26.47;43.59;100400.69;146601;575;46014;-71
2022/08/19 02:29:38;;;;;;;;;15.50;11.25;;;;;26.42;43.96;100404.38;146603;639;47030;-70
2022/08/19 02:32:32;;;;;;;;;10.25;10.25;;;;;26.40;44.14;100408.84;146603;579;45913;-69
2022/08/19 02:35:28;;;;;;;;;11.75;10.25;;;;;26.37;44.73;100399.13;146607;611;45021;-70
2022/08/19 02:38:39;;;;;;;;;;;;;;;;;;;;;
2022/08/19 02:41:41;;;;;;;;;12.50;11.00;;;;;26.40;44.22;100403.53;146607;608;45022;-68
2022/08/19 02:44:38;;;;;;;;;12.00;9.00;;;;;26.39;44.68;100391.16;146601;581;46912;-68
2022/08/19 02:47:43;;;;;;;;;12.00;11.00;;;;;26.37;44.34;100392.94;146608;636;45021;-68
2022/08/19 02:50:37;;;;;;;;;12.75;12.75;;;;;26.41;44.26;100394.62;146602;633;46012;-69
2022/08/19 02:53:41;;;;;;;;;13.50;11.50;;;;;26.44;43.69;100390.13;146607;636;45020;-70
2022/08/19 02:56:44;;;;;;;;;12.25;11.25;;;;;26.46;43.73;100384.78;146603;690;45913;-68
2022/08/19 02:59:39;;;;;;;;;12.75;12.00;;;;;26.43;44.07;100387.50;146603;688;45020;-70
2022/08/19 03:02:41;;;;;;;;;11.00;9.75;;;;;26.43;44.02;100388.38;146602;588;45912;-69
2022/08/19 03:05:52;;;;;;;;;12.00;12.00;;;;;26.42;44.21;100377.78;146608;599;45021;-68
2022/08/19 03:08:53;;;;;;;;;12.00;11.50;;;;;26.35;43.92;100378.78;146603;580;45912;-67
2022/08/19 03:11:56;;;;;;;;;11.00;11.00;;;;;26.29;44.37;100371.81;146605;591;46010;-69
2022/08/19 03:14:52;;;;;;;;;10.25;10.00;;;;;26.24;44.75;100382.53;146604;563;45911;-68
2022/08/19 03:17:50;;;;;;;;;12.00;10.50;;;;;26.20;44.51;100383.50;146607;576;46010;-68
2022/08/19 03:20:54;;;;;;;;;12.00;10.00;;;;;26.16;44.80;100384.44;146602;579;45912;-67
2022/08/19 03:23:53;;;;;;;;;12.50;11.25;;;;;26.12;44.56;100384.53;146604;591;45020;-67
2022/08/19 03:27:06;;;;;;;;;12.25;10.00;;;;;26.07;44.58;100386.41;146603;649;45913;-67
2022/08/19 03:30:02;;;;;;;;;13.00;13.00;;;;;26.05;44.41;100386.44;146602;577;46010;-69
2022/08/19 03:33:13;;;;;;;;;13.50;12.25;;;;;26.07;44.03;100389.06;146600;582;45912;-68
2022/08/19 03:36:25;;;;;;;;;11.25;10.25;;;;;26.09;44.33;100396.09;146606;677;45020;-70
2022/08/19 03:39:33;;;;;;;;;10.75;10.00;;;;;26.06;43.87;100396.16;146601;614;45912;-70
2022/08/19 03:42:37;;;;;;;;;13.25;12.00;;;;;26.09;44.45;100400.53;146606;594;45021;-70
2022/08/19 03:45:36;;;;;;;;;12.75;11.75;;;;;26.12;44.20;100408.47;146596;652;47913;-70
2022/08/19 03:48:40;;;;;;;;;13.50;12.75;;;;;26.13;44.89;100410.22;146602;618;46010;-70
2022/08/19 03:52:07;;;;;;;;;;;;;;;;;;;;;
2022/08/19 03:55:02;;;;;;;;;12.00;11.50;;;;;26.12;44.36;100408.47;146605;623;46010;-69
2022/08/19 03:58:03;;;;;;;;;13.75;11.75;;;;;26.13;44.69;100405.75;146603;668;45910;-69
2022/08/19 04:00:59;;;;;;;;;12.00;11.25;;;;;26.13;45.32;100403.09;146604;574;45020;-68
2022/08/19 04:03:52;;;;;;;;;11.25;11.00;;;;;26.13;45.11;100404.88;146602;565;45913;-69
2022/08/19 04:06:50;;;;;;;;;12.50;11.50;;;;;26.17;45.25;100414.59;146604;650;46010;-68
2022/08/19 04:09:56;;;;;;;;;13.75;10.75;;;;;26.15;45.06;100414.59;146602;583;45912;-68
2022/08/19 04:12:57;;;;;;;;;9.75;9.75;;;;;26.17;45.75;100418.12;146632;576;45010;-68
2022/08/19 04:15:54;;;;;;;;;14.25;14.00;;;;;26.23;45.41;100415.34;146631;693;44883;-70
2022/08/19 04:19:04;;;;;;;;;12.25;10.00;;;;;26.30;45.49;100423.22;146628;626;44021;-70
2022/08/19 04:22:11;;;;;;;;;12.25;12.25;;;;;25.33;45.38;100261.06;146631;716;45012;-70
2022/08/19 04:25:03;;;;;;;;;11.75;10.75;;;;;26.26;45.76;100425.03;146631;603;45011;-68
2022/08/19 04:27:59;;;;;;;;;11.00;11.00;;;;;26.25;45.83;100428.59;146628;615;44912;-69
2022/08/19 04:31:04;;;;;;;;;12.25;12.00;;;;;25.28;45.46;100257.59;146630;587;45010;-67
2022/08/19 04:34:18;;;;;;;;;10.75;9.50;;;;;26.32;45.32;100422.25;146628;676;45913;-68
2022/08/19 04:37:11;;;;;;;;;11.75;10.75;;;;;26.37;45.72;100435.47;146634;577;44020;-70
2022/08/19 04:43:34;;;;;;;;;11.75;11.00;;;;;26.53;45.90;100438.75;146630;676;44020;-69
2022/08/19 04:46:33;;;;;;;;;11.75;10.00;;;;;26.64;46.35;100437.66;146627;570;45015;-70
2022/08/19 04:49:39;;;;;;;;;;;;;;;;;;;;;
2022/08/19 04:52:51;;;;;;;;;11.50;11.50;;;;;27.00;46.56;100451.09;146627;602;45910;-70
2022/08/19 04:55:48;;;;;;;;;12.75;12.50;;;;;27.20;46.14;100449.84;146630;736;44021;-70
2022/08/19 04:58:55;;;;;;;;;13.75;12.50;;;;;27.39;45.61;100453.87;146628;588;45912;-70
2022/08/19 05:01:51;;;;;;;;;11.25;11.25;;;;;27.65;45.92;100455.94;146627;701;45917;-71
2022/08/19 05:05:14;;;;;;;;;12.00;10.50;;;;;27.86;44.98;100454.59;146631;629;45912;-71
2022/08/19 05:08:21;;;;;;;;;8.75;8.75;;;;;27.15;44.56;100295.59;146630;624;44020;-70
2022/08/19 05:11:38;;;;;;;;;11.25;11.00;;;;;28.32;45.23;100459.62;146613;603;45912;-71
2022/08/19 05:14:44;;;;;;;;;13.25;11.25;;;;;28.60;44.40;100458.94;146609;570;45020;-72
2022/08/19 05:22:31;;;;;;;;;11.25;10.50;;;;;28.77;44.35;100462.00;146601;575;46012;-71
2022/08/19 05:24:18;;;;;;;;;10.00;9.75;;;;;29.19;43.90;100455.47;146601;596;46013;-70
2022/08/19 05:27:10;;;;;;;;;11.00;11.00;;;;;29.40;43.61;100459.28;146605;583;45020;-72
2022/08/19 05:30:11;;;;;;;;;12.75;12.75;;;;;29.64;43.83;100458.56;146600;569;46012;-71
2022/08/19 05:33:21;;;;;;;;;12.00;10.25;;;;;29.86;41.86;100464.09;146603;604;45021;-72
2022/08/19 05:36:19;;;;;;;;;12.00;11.00;;;;;30.11;42.84;100468.63;146601;697;46012;-68
2022/08/19 05:39:25;;;;;;;;;10.50;10.25;;;;;30.35;42.86;100466.97;146604;634;46010;-69
2022/08/19 05:42:23;;;;;;;;;10.00;9.50;;;;;30.58;41.37;100463.47;146602;569;45914;-70
2022/08/19 05:45:32;;;;;;;;;;;;;;;;;;;;;
2022/08/19 05:48:41;;;;;;;;;10.75;10.75;;;;;30.17;38.56;100317.81;146601;563;46012;-71
2022/08/19 05:51:33;;;;;;;;;12.75;10.75;;;;;31.15;37.82;100470.31;146607;593;45020;-70
2022/08/19 05:54:45;;;;;;;;;;;;;;;;;;;;;
2022/08/19 05:57:53;;;;;;;;;10.25;10.00;;;;;30.51;37.21;100318.34;146604;602;46010;-70
2022/08/19 06:00:54;;;;;;;;;8.00;8.00;;;;;31.45;38.14;100459.38;146601;634;45914;-70
2022/08/19 06:04:00;;;;;;;;;11.00;11.00;;;;;31.59;36.46;100450.78;146603;578;46010;-70
2022/08/19 06:07:15;;;;;;;;;11.50;10.25;;;;;31.70;35.48;100446.75;146598;638;46010;-70
2022/08/19 06:10:17;;;;;;;;;12.50;11.50;;;;;31.82;38.06;100448.06;146607;622;45021;-69
2022/08/19 06:13:15;;;;;;;;;13.75;11.75;;;;;32.01;36.33;100455.38;146602;631;45914;-70
2022/08/19 06:16:12;;;;;;;;;12.75;11.50;;;;;32.14;37.85;100465.50;146602;597;46010;-70
2022/08/19 06:19:19;;;;;;;;;10.50;9.75;;;;;32.30;37.02;100459.47;146601;598;46012;-71
2022/08/19 06:22:17;;;;;;;;;12.25;12.25;;;;;32.47;36.61;100464.16;146604;593;45021;-70
2022/08/19 06:25:16;;;;;;;;;13.25;12.25;;;;;32.61;35.95;100467.09;146601;565;45915;-71
2022/08/19 06:28:26;;;;;;;;;13.50;12.50;;;;;32.73;36.21;100457.63;146605;574;46014;-69
2022/08/19 06:31:26;;;;;;;;;14.00;13.25;;;;;32.88;36.58;100455.13;146602;615;45914;-74
2022/08/19 06:34:23;;;;;;;;;17.00;15.25;;;;;33.04;35.65;100465.19;146602;610;46014;-74
2022/08/19 06:37:18;;;;;;;;;14.50;13.25;;;;;33.14;34.97;100458.44;146603;664;45914;-75
2022/08/19 06:40:15;;;;;;;;;18.25;13.50;;;;;33.24;35.11;100450.81;146605;569;45021;-74
2022/08/19 06:43:17;;;;;;;;;16.25;13.50;;;;;33.36;35.18;100455.62;146603;585;45914;-75
2022/08/19 06:46:19;;;;;;;;;13.00;13.00;;;;;33.41;34.02;100453.59;146604;564;46010;-74
2022/08/19 06:49:15;;;;;;;;;14.00;13.50;;;;;33.38;34.38;100448.38;146600;578;46012;-76
2022/08/19 06:52:08;;;;;;;;;19.50;19.50;;;;;33.48;34.95;100454.16;146606;578;45021;-73
2022/08/19 06:55:13;;;;;;;;;16.00;14.00;;;;;33.59;35.76;100456.38;146602;613;45914;-74
2022/08/19 06:58:11;;;;;;;;;13.00;13.00;;;;;33.73;33.29;100465.50;146604;576;46010;-74
2022/08/19 07:01:09;;;;;;;;;15.00;15.00;;;;;33.78;35.88;100455.41;146601;571;45915;-73
2022/08/19 07:04:06;;;;;;;;;12.50;12.50;;;;;33.91;33.16;100458.34;146601;612;46020;-75
2022/08/19 07:07:11;;;;;;;;;15.50;15.50;;;;;34.08;35.32;100462.03;146601;610;45914;-73
2022/08/19 07:10:20;;;;;;;;;13.75;13.50;;;;;34.25;33.40;100462.91;146604;722;46010;-74
2022/08/19 07:13:13;;;;;;;;;15.00;12.50;;;;;34.43;32.73;100462.94;146602;564;45914;-74
2022/08/19 07:16:28;;;;;;;;;15.50;14.50;;;;;33.86;34.55;100347.41;146606;594;45030;-75
2022/08/19 07:19:43;;;;;;;;;13.25;11.75;;;;;34.76;34.77;100472.88;146601;629;46012;-75
2022/08/19 07:22:47;;;;;;;;;17.75;16.75;;;;;34.95;36.14;100476.31;146606;637;45021;-75
2022/08/19 07:26:03;;;;;;;;;16.50;14.00;;;;;35.16;35.68;100475.19;146602;621;45912;-74
2022/08/19 07:29:27;;;;;;;;;13.25;12.25;;;;;34.51;35.20;100349.44;146604;619;45021;-75
2022/08/19 07:32:42;;;;;;;;;15.75;14.00;;;;;34.45;36.73;100351.50;146602;607;45911;-73
2022/08/19 07:35:35;;;;;;;;;14.25;13.25;;;;;35.19;37.43;100479.53;146602;574;47010;-74
2022/08/19 07:38:32;;;;;;;;;14.25;12.75;;;;;35.16;38.38;100490.50;146602;585;45915;-75
2022/08/19 07:41:34;;;;;;;;;11.00;11.00;;;;;35.24;37.41;100482.88;146603;593;46014;-73
2022/08/19 07:44:38;;;;;;;;;12.75;12.75;;;;;35.37;37.75;100489.31;146602;632;45914;-75
2022/08/19 07:47:33;;;;;;;;;15.25;14.00;;;;;35.46;37.18;100482.53;146606;564;45020;-75
2022/08/19 07:50:30;;;;;;;;;17.00;16.75;;;;;35.48;36.89;100485.13;146602;579;45914;-75
2022/08/19 07:53:44;;;;;;;;;16.50;14.50;;;;;35.48;37.57;100480.59;146605;573;46010;-76
2022/08/19 07:56:40;;;;;;;;;16.50;15.75;;;;;35.46;37.21;100495.16;146601;607;45914;-81
2022/08/19 07:59:46;;;;;;;;;19.00;18.00;;;;;35.45;37.56;100488.00;146608;590;45021;-82
2022/08/19 08:02:42;;;;;;;;;13.75;13.50;;;;;35.45;37.63;100485.28;146602;615;46012;-81
2022/08/19 08:09:15;;;;;;;;;22.00;19.25;;;;;35.34;37.88;100480.53;146604;577;46012;-75
2022/08/19 08:12:28;;;;;;;;;19.25;18.75;;;;;35.28;37.20;100486.25;146604;589;46020;-75
2022/08/19 08:15:29;;;;;;;;;17.25;15.75;;;;;35.29;37.51;100485.28;146602;569;46012;-75
2022/08/19 08:18:27;;;;;;;;;18.75;17.25;;;;;35.30;38.45;100489.75;146603;645;46010;-77
2022/08/19 08:21:22;;;;;;;;;13.25;13.25;;;;;35.28;37.74;100489.81;146597;571;46017;-77
2022/08/19 08:24:16;;;;;;;;;18.25;14.25;;;;;34.66;37.87;100399.81;146602;563;47912;-77
2022/08/19 08:27:10;;;;;;;;;19.25;18.50;;;;;35.22;38.37;100489.28;146599;619;46014;-76
2022/08/19 08:30:08;;;;;;;;;20.50;17.50;;;;;35.28;37.88;100483.56;146604;643;46010;-78
2022/08/19 08:33:03;;;;;;;;;22.00;22.00;;;;;35.38;38.03;100488.34;146596;572;48016;-78
2022/08/19 08:35:56;;;;;;;;;20.00;19.00;;;;;35.54;37.64;100480.28;146601;612;46011;-77
2022/08/19 08:38:49;;;;;;;;;24.50;23.50;;;;;35.65;36.44;100477.00;146598;590;46016;-77
2022/08/19 08:41:55;;;;;;;;;18.50;17.50;;;;;35.69;34.80;100459.66;146600;652;46020;-77
2022/08/19 08:45:02;;;;;;;;;48.25;40.50;;;;;35.89;36.38;100476.53;146599;609;46014;-76
2022/08/19 08:48:01;;;;;;;;;44.50;34.75;;;;;35.93;35.35;100475.41;146602;578;46020;-75
2022/08/19 08:50:59;;;;;;;;;20.00;18.00;;;;;35.94;35.22;100472.59;146600;606;46014;-75
2022/08/19 08:53:54;;;;;;;;;34.00;29.75;;;;;35.92;36.26;100465.56;146605;637;45031;-76
2022/08/19 08:57:00;;;;;;;;;20.50;18.75;;;;;36.13;35.12;100469.72;146599;617;47012;-76
2022/08/19 09:00:03;;;;;;;;;21.50;20.00;;;;;36.29;35.71;100461.56;146601;659;46021;-77
2022/08/19 09:03:09;;;;;;;;;36.25;32.00;;;;;36.42;35.33;100461.69;146602;773;46012;-75
2022/08/19 09:06:56;;;;;;;;;18.25;17.75;;;;;35.58;35.66;100289.53;146597;620;47021;-77
2022/08/19 09:10:33;;;;;;;;;19.25;18.25;;;;;36.73;35.13;100450.81;146600;596;46016;-78
2022/08/19 09:17:30;;;;;;;;;17.00;15.00;;;;;36.67;35.94;100451.19;146600;575;46912;-76
2022/08/19 09:21:15;;;;;;;;;14.75;14.75;;;;;36.62;36.31;100450.59;146604;564;46011;-78
2022/08/19 09:25:05;;;;;;;;;14.50;13.25;;;;;36.62;34.59;100439.78;146600;680;46012;-77
2022/08/19 09:28:21;;;;;;;;;;;;;;;;;;;;;
2022/08/19 09:31:44;;;;;;;;;15.00;13.50;;;;;36.90;33.17;100428.09;146604;642;46018;-75
2022/08/19 09:38:36;;;;;;;;;17.25;15.75;;;;;37.11;34.47;100433.16;146601;564;46016;-76
2022/08/19 09:41:59;;;;;;;;;17.50;15.75;;;;;37.29;33.54;100431.06;146604;575;46020;-75
2022/08/19 09:45:39;;;;;;;;;12.00;12.00;;;;;37.43;33.22;100431.91;146601;592;46016;-76
2022/08/19 09:53:29;;;;;;;;;13.50;13.50;;;;;37.46;32.91;100428.19;146600;564;46012;-77
2022/08/19 09:57:49;;;;;;;;;13.50;12.75;;;;;37.64;33.94;100428.81;146604;746;46020;-76
2022/08/19 10:01:34;;;;;;;;;13.50;11.50;;;;;37.73;32.91;100421.91;146600;579;45016;-77
2022/08/19 10:09:16;;;;;;;;;;;;;;;;;;;;;
2022/08/19 10:17:03;;;;;;;;;;;;;;;;;;;;;
2022/08/19 10:20:28;;;;;;;;;17.25;15.00;;;;;38.01;32.07;100415.50;146614;658;45021;-78
2022/08/19 10:23:36;;;;;;;;;15.00;13.75;;;;;37.99;31.92;100412.06;146604;593;46014;-76
2022/08/19 10:27:07;;;;;;;;;12.00;12.00;;;;;38.04;32.12;100409.87;146611;606;46020;-77
2022/08/19 10:33:22;;;;;;;;;11.50;11.50;;;;;38.13;32.06;100412.84;146610;604;46020;-76
2022/08/19 10:36:24;;;;;;;;;12.00;11.50;;;;;38.14;28.65;100413.72;146602;579;47014;-73
2022/08/19 10:39:25;;;;;;;;;11.50;11.00;;;;;38.04;30.04;100399.94;146611;609;47010;-73
2022/08/19 10:42:20;;;;;;;;;12.00;11.00;;;;;37.86;29.06;100404.75;146611;599;46014;-75
2022/08/19 10:45:36;;;;;;;;;12.75;12.00;;;;;37.65;29.01;100398.94;146609;579;47020;-74
2022/08/19 10:48:38;;;;;;;;;13.50;13.50;;;;;37.40;29.20;100386.16;146608;566;46016;-74
2022/08/19 10:58:01;;;;;;;;;8.75;7.75;;;;;37.09;27.42;100390.00;146612;613;46010;-72
2022/08/19 11:01:01;;;;;;;;;11.00;11.00;;;;;36.84;28.13;100387.97;146609;649;46012;-73
2022/08/19 11:03:57;;;;;;;;;11.75;11.00;;;;;36.68;29.14;100376.41;146609;593;46020;-73
2022/08/19 11:06:53;;;;;;;;;13.00;13.00;;;;;36.67;30.49;100374.66;146606;573;46014;-75
2022/08/19 11:09:49;;;;;;;;;8.25;8.00;;;;;36.67;28.77;100380.06;146612;692;46010;-74
2022/08/19 11:13:02;;;;;;;;;9.50;9.50;;;;;36.60;27.40;100373.31;146605;626;46017;-72
2022/08/19 11:16:11;;;;;;;;;11.50;10.50;;;;;36.45;26.79;100370.59;146604;607;46020;-72
2022/08/19 11:19:12;;;;;;;;;9.50;9.50;;;;;36.41;29.34;100374.41;146601;597;46013;-73
2022/08/19 11:22:17;;;;;;;;;14.00;12.50;;;;;36.40;29.27;100386.19;146605;581;46019;-73
2022/08/19 11:25:40;;;;;;;;;11.00;11.00;;;;;36.44;29.16;100366.13;146595;586;47016;-73
2022/08/19 11:28:33;;;;;;;;;13.75;12.75;;;;;36.33;27.27;100373.16;146602;591;46029;-72
2022/08/19 11:31:39;;;;;;;;;11.00;10.25;;;;;36.37;27.86;100372.03;146600;604;46016;-74
2022/08/19 11:34:35;;;;;;;;;14.50;13.50;;;;;35.50;27.77;100225.25;146607;564;45021;-74
2022/08/19 11:37:27;;;;;;;;;14.75;13.25;;;;;36.42;28.30;100362.69;146600;602;46016;-77
2022/08/19 11:40:29;;;;;;;;;12.00;11.25;;;;;36.57;28.03;100360.00;146600;572;46021;-75
2022/08/19 11:43:31;;;;;;;;;11.50;10.50;;;;;36.68;28.13;100366.47;146598;583;47016;-72
2022/08/19 11:46:30;;;;;;;;;12.25;11.00;;;;;36.76;28.10;100364.16;146602;595;46020;-75
2022/08/19 11:49:31;;;;;;;;;11.75;11.50;;;;;36.78;27.02;100363.19;146601;608;47012;-72
2022/08/19 11:52:29;;;;;;;;;11.50;10.50;;;;;36.69;27.19;100361.91;146603;602;46012;-73
2022/08/19 11:55:26;;;;;;;;;10.00;9.50;;;;;36.57;27.76;100351.91;146604;653;46016;-74
2022/08/19 11:58:22;;;;;;;;;13.75;13.00;;;;;35.01;27.95;100101.50;146606;609;46020;-74
2022/08/19 12:01:23;;;;;;;;;10.75;10.00;;;;;36.61;28.59;100351.63;146602;597;46014;-74
2022/08/19 12:04:20;;;;;;;;;10.00;10.00;;;;;36.73;27.75;100356.25;146607;569;46021;-73
2022/08/19 12:07:12;;;;;;;;;9.50;9.50;;;;;36.78;26.56;100357.78;146595;624;46032;-74
2022/08/19 12:10:11;;;;;;;;;10.75;10.75;;;;;36.79;27.88;100343.28;146599;668;47010;-72
2022/08/19 12:13:09;;;;;;;;;13.00;13.00;;;;;36.76;27.62;100344.34;146607;622;46016;-74
2022/08/19 12:16:07;;;;;;;;;9.00;9.00;;;;;36.79;28.15;100344.16;146611;579;47020;-72
2022/08/19 12:19:03;;;;;;;;;12.25;12.25;;;;;36.83;28.92;100332.19;146606;649;46017;-73
2022/08/19 12:22:12;;;;;;;;;12.25;12.25;;;;;36.97;29.17;100337.56;146609;593;46020;-73
2022/08/19 12:25:04;;;;;;;;;13.25;12.25;;;;;37.09;28.06;100343.19;146606;571;46017;-73
2022/08/19 12:28:03;;;;;;;;;13.25;13.00;;;;;37.13;29.17;100342.00;146614;598;46020;-74
2022/08/19 12:31:02;;;;;;;;;13.50;13.50;;;;;37.12;28.74;100330.31;146609;598;46016;-74
2022/08/19 12:33:55;;;;;;;;;11.00;11.00;;;;;37.16;28.42;100333.69;146617;631;46020;-73
2022/08/19 12:37:01;;;;;;;;;12.50;12.50;;;;;37.10;27.89;100326.84;146601;563;46014;-71
2022/08/19 12:39:56;;;;;;;;;11.75;11.00;;;;;37.09;29.59;100332.37;146616;575;46010;-73
2022/08/19 12:42:49;;;;;;;;;11.00;11.00;;;;;37.13;28.58;100337.47;146604;626;46017;-75
2022/08/19 12:45:59;;;;;;;;;11.25;10.75;;;;;37.18;29.86;100329.06;146616;595;46010;-73
2022/08/19 12:48:57;;;;;;;;;15.00;13.25;;;;;36.99;29.64;100329.41;146608;580;47014;-71
2022/08/19 12:52:04;;;;;;;;;13.50;13.50;;;;;36.80;31.25;100335.09;146610;591;46020;-73
2022/08/19 12:55:04;;;;;;;;;9.75;9.50;;;;;36.66;30.84;100322.47;146609;569;46017;-73
2022/08/19 12:58:07;;;;;;;;;13.50;13.50;;;;;36.57;31.44;100320.34;146613;590;46020;-73
2022/08/19 13:01:00;;;;;;;;;11.25;10.75;;;;;36.52;30.19;100315.25;146609;627;46012;-73
2022/08/19 13:03:59;;;;;;;;;13.25;13.00;;;;;36.60;31.96;100316.59;146611;689;47021;-72
2022/08/19 13:06:58;;;;;;;;;14.50;13.50;;;;;36.61;31.81;100313.81;146606;617;46033;-73
2022/08/19 13:09:54;;;;;;;;;15.00;13.50;;;;;36.52;32.31;100320.66;146612;594;46011;-75
2022/08/19 13:12:48;;;;;;;;;13.00;12.50;;;;;36.52;30.99;100300.88;146604;564;46916;-73
2022/08/19 13:15:45;;;;;;;;;13.50;13.50;;;;;36.43;31.12;100299.59;146603;603;46012;-71
2022/08/19 13:18:37;;;;;;;;;12.75;12.00;;;;;36.39;31.84;100298.06;146605;591;46016;-74
2022/08/19 13:21:32;;;;;;;;;12.75;11.25;;;;;36.30;30.43;100295.94;146606;588;46010;-73
2022/08/19 13:24:25;;;;;;;;;11.00;11.00;;;;;36.28;31.10;100297.87;146597;583;47015;-75
2022/08/19 13:27:22;;;;;;;;;15.00;12.50;;;;;36.35;31.66;100290.25;146602;747;46022;-75
2022/08/19 13:33:48;;;;;;;;;11.50;11.50;;;;;34.48;30.14;99970.91;146602;564;46021;-73
2022/08/19 13:36:44;;;;;;;;;10.25;9.75;;;;;36.30;30.38;100280.63;146599;588;46016;-73
2022/08/19 13:39:44;;;;;;;;;10.75;10.75;;;;;36.37;30.59;100275.69;146602;564;46011;-73
2022/08/19 13:42:42;;;;;;;;;11.50;10.25;;;;;36.40;29.68;100267.41;146600;591;47014;-73
2022/08/19 13:45:41;;;;;;;;;13.25;12.00;;;;;36.36;29.70;100268.56;146600;569;46020;-73
2022/08/19 13:48:43;;;;;;;;;11.00;11.00;;;;;36.42;29.18;100264.56;146602;599;46017;-73
2022/08/19 13:51:41;;;;;;;;;12.25;12.00;;;;;36.47;29.11;100262.47;146601;569;46020;-73
2022/08/19 13:54:36;;;;;;;;;15.25;13.00;;;;;36.50;30.67;100262.28;146597;587;46013;-76
2022/08/19 13:57:38;;;;;;;;;11.50;11.50;;;;;36.48;29.65;100251.59;146605;620;46020;-73
2022/08/19 14:00:43;;;;;;;;;11.50;11.50;;;;;36.57;30.04;100260.94;146599;641;46016;-75
2022/08/19 14:03:48;;;;;;;;;12.00;11.50;;;;;36.65;29.98;100265.84;146608;601;46010;-74
2022/08/19 14:06:42;;;;;;;;;12.50;11.50;;;;;36.65;29.83;100258.63;146602;588;46016;-73
2022/08/19 14:09:37;;;;;;;;;12.25;12.25;;;;;36.62;29.37;100260.66;146601;667;46021;-74
2022/08/19 14:12:34;;;;;;;;;13.25;11.50;;;;;36.63;32.82;100252.44;146600;569;46034;-73
2022/08/19 14:15:36;;;;;;;;;15.00;13.50;;;;;36.62;33.99;100258.81;146604;587;46020;-77
2022/08/19 14:18:29;;;;;;;;;12.00;11.50;;;;;36.55;33.15;100260.19;146599;575;46016;-74
2022/08/19 14:21:31;;;;;;;;;14.00;13.25;;;;;36.51;32.73;100251.41;146602;585;46020;-71
2022/08/19 14:24:24;;;;;;;;;11.50;11.50;;;;;36.51;33.32;100255.91;146598;637;47017;-71
2022/08/19 14:27:18;;;;;;;;;13.75;12.50;;;;;36.53;33.24;100262.09;146601;566;46030;-73
2022/08/19 14:30:14;;;;;;;;;10.75;10.25;;;;;36.58;31.79;100253.72;146601;563;46016;-73
2022/08/19 14:33:14;;;;;;;;;11.50;11.50;;;;;36.60;30.96;100247.22;146605;610;46021;-71
2022/08/19 14:36:16;;;;;;;;;11.25;11.25;;;;;36.64;32.39;100256.88;146602;587;46012;-73
2022/08/19 14:39:13;;;;;;;;;12.25;12.25;;;;;36.64;35.20;100248.78;146603;558;46020;-73
2022/08/19 14:42:14;;;;;;;;;13.25;13.25;;;;;36.51;35.32;100248.72;146599;579;46014;-73
2022/08/19 14:45:10;;;;;;;;;16.50;14.25;;;;;36.41;38.69;100254.75;146603;569;46010;-73
2022/08/19 14:48:04;;;;;;;;;11.50;11.25;;;;;36.26;38.54;100254.78;146600;587;46016;-73
2022/08/19 14:50:57;;;;;;;;;11.00;10.50;;;;;36.05;38.90;100246.19;146603;572;46010;-72